Terminal Aerodrome Forecast
Issued by NWS

Home | Current Version | Previous Version | Text Only | Print | Product List | Glossary On
Versions: 1 2 3 4 5 6 7 8 9 10 11 12 13 14 15 16 17 18 19 20 21 22
000
FTUS45 KSLC 272206 AAB
TAFBCE
TAF AMD
KBCE 272206Z 2722/2818 23015G23KT 5SM -SHSN BKN030 OVC040
      TEMPO 2722/2801 1SM -SN BKN019 OVC030
     FM280200 25009KT P6SM SCT020 BKN040
     FM280600 30012G20KT P6SM VCSH SCT020 BKN030=

USA.gov is the U.S. government's official web portal to all federal, state and local government web resources and services.